Disclaimer

Please do not use the information listed here in-flight or in-navigation, as they are not provided to us by the airports but are provided by volunteers, so they might be outdated.

Search


Regions


Airport information page

Radio informations:
Tower (TWR) - 128.7 MHz
BREMEN RADAR - 124.225 MHz
INFO - 128.7 MHz
Ground (GND) - 121.775 MHz
Automatic Terminal Information Service (ATIS) - 119.925 MHz
BREMEN INFO - 125.1 MHz

Airport informations:
Latitude: 53° 48' 19.32" N
Longitude: 010° 43' 09.20" E
Elevation: 53 feet - 16 meters
Operating hours: Remarks
Operating agency: Civil government, landing fees and diplomatic clearance may be required
Timezone: UTC+1(+2DT) - Last Sunday in March to last Sunday in October
Fuel: Jet A1, without icing nhibitor.

100/130 MIL Spec, low lead, aviation gasoline (BLUE)

Runway information:
07/25 - 6896 x 197 feet< - >2102 x 60 meters

Recent METARs:
EDHL 191750Z 06010KT CAVOK 04/01 Q1024
EDHL 191750Z 06010KT CAVOK 04/01 Q1024
EDHL 191750Z 06010KT CAVOK 04/01 Q1024

Airport on the map: